Time;durP1;ratioP1;P1;durP2;ratioP2;P2;SDS_P1;SDS_P2;PMS_P1;PMS_P2;Temp;Humidity;BMP_temperature;BMP_pressure;BME280_temperature;BME280_humidity;BME280_pressure;Samples;Min_cycle;Max_cycle;Signal;HPM_P1;HPM_P2
2022/09/05 00:00:18;;;;;;;8.38;2.35;;;17.20;99.90;;;;;;4999922;28;20483;-77
2022/09/05 00:02:57;;;;;;;7.93;2.63;;;17.30;99.90;;;;;;5017858;28;20042;-74
2022/09/05 00:06:00;;;;;;;13.07;2.50;;;17.40;99.80;;;;;;5017638;28;20046;-77
2022/09/05 00:08:32;;;;;;;8.90;2.35;;;17.50;99.80;;;;;;4993368;28;20468;-77
2022/09/05 00:11:12;;;;;;;11.45;2.50;;;18.40;99.90;;;;;;5017953;28;20061;-77
2022/09/05 00:14:21;;;;;;;7.10;2.45;;;17.50;99.70;;;;;;5001642;28;20069;-77
2022/09/05 00:17:16;;;;;;;9.13;2.45;;;17.50;99.60;;;;;;5017477;28;20468;-76
2022/09/05 00:19:46;;;;;;;6.03;2.50;;;17.60;99.70;;;;;;4984418;28;20064;-77
2022/09/05 00:23:14;;;;;;;8.32;2.78;;;17.70;99.70;;;;;;5017569;28;20049;-77
2022/09/05 00:26:09;;;;;;;49.65;7.97;;;17.80;99.60;;;;;;5015525;28;20476;-78
2022/09/05 00:28:42;;;;;;;32.47;7.43;;;18.10;99.90;;;;;;5016275;28;20053;-78
2022/09/05 00:31:37;;;;;;;20.20;7.10;;;17.90;99.90;;;;;;5000576;28;20465;-78
2022/09/05 00:35:12;;;;;;;15.50;7.15;;;17.50;99.90;;;;;;5016289;28;20050;-77
2022/09/05 00:37:43;;;;;;;20.05;9.52;;;17.30;99.90;;;;;;5004014;28;20050;-79
2022/09/05 00:40:31;;;;;;;30.80;11.90;;;17.10;99.90;;;;;;5016093;28;20053;-78
2022/09/05 00:43:10;;;;;;;31.08;15.02;;;17.10;99.90;;;;;;5000126;28;20045;-78
2022/09/05 00:45:58;;;;;;;26.40;9.63;;;17.10;99.90;;;;;;5000009;28;20042;-78
2022/09/05 00:48:52;;;;;;;19.85;8.95;;;17.10;99.90;;;;;;5015711;28;20042;-78
2022/09/05 00:51:37;;;;;;;25.45;10.93;;;17.10;99.90;;;;;;4999813;28;20354;-78
2022/09/05 00:54:55;;;;;;;22.95;11.27;;;17.10;99.90;;;;;;5016043;28;20049;-78
2022/09/05 00:57:46;;;;;;;28.88;13.02;;;17.00;99.90;;;;;;5014088;28;20062;-78
2022/09/05 01:00:17;;;;;;;22.35;9.98;;;17.00;99.90;;;;;;4982880;28;20084;-78
2022/09/05 01:03:08;;;;;;;26.92;10.25;;;17.00;99.90;;;;;;4999892;28;20045;-79
2022/09/05 01:05:53;;;;;;;19.40;10.45;;;16.90;99.90;;;;;;5000189;28;20069;-78
2022/09/05 01:08:39;;;;;;;18.02;7.82;;;16.90;99.90;;;;;;4998651;28;20345;-78
2022/09/05 01:11:32;;;;;;;27.30;11.75;;;16.80;99.90;;;;;;5000295;28;20373;-78
2022/09/05 01:14:25;;;;;;;28.98;13.90;;;16.80;99.90;;;;;;4988559;28;20473;-78
2022/09/05 01:17:16;;;;;;;23.52;12.57;;;16.80;99.90;;;;;;5016968;28;20038;-78
2022/09/05 01:20:17;;;;;;;32.72;14.05;;;16.80;99.90;;;;;;4999117;28;20045;-78
2022/09/05 01:22:52;;;;;;;31.20;16.63;;;16.80;99.90;;;;;;5016372;28;20049;-77
2022/09/05 01:25:30;;;;;;;38.83;18.38;;;16.80;99.90;;;;;;4999243;28;20050;-78
2022/09/05 01:28:33;;;;;;;31.83;15.60;;;16.80;99.90;;;;;;5015418;28;20057;-78
2022/09/05 01:31:36;;;;;;;46.38;18.48;;;16.80;99.90;;;;;;5016087;28;20504;-78
2022/09/05 01:34:19;;;;;;;38.30;16.42;;;16.80;99.90;;;;;;5015318;28;20049;-78
2022/09/05 01:37:21;;;;;;;36.35;15.57;;;16.80;99.90;;;;;;5000765;28;20053;-78
2022/09/05 01:40:33;;;;;;;31.85;14.85;;;16.90;99.90;;;;;;5014831;28;20065;-77
2022/09/05 01:43:24;;;;;;;33.65;14.68;;;16.80;99.90;;;;;;4998701;28;20095;-78
2022/09/05 01:46:26;;;;;;;24.08;12.80;;;16.80;99.90;;;;;;5016512;28;20042;-77
2022/09/05 01:49:19;;;;;;;32.92;15.27;;;16.80;99.90;;;;;;4992207;28;20376;-78
2022/09/05 01:51:46;;;;;;;26.80;11.77;;;16.80;99.90;;;;;;5015917;28;20057;-77
2022/09/05 01:54:32;;;;;;;23.45;14.75;;;16.80;99.90;;;;;;4997866;28;20073;-77
2022/09/05 01:57:18;;;;;;;28.80;10.98;;;16.80;99.90;;;;;;4999030;28;20404;-77
2022/09/05 02:00:04;;;;;;;25.77;12.10;;;16.80;99.90;;;;;;5015107;28;20045;-77
2022/09/05 02:02:41;;;;;;;20.75;10.35;;;16.80;99.90;;;;;;5015543;28;20049;-77
2022/09/05 02:05:45;;;;;;;24.08;11.13;;;16.70;99.90;;;;;;4983849;28;20056;-78
2022/09/05 02:08:32;;;;;;;31.75;13.98;;;16.80;99.90;;;;;;5014439;28;20041;-78
2022/09/05 02:11:00;;;;;;;25.98;12.90;;;16.70;99.90;;;;;;5015846;28;20053;-78
2022/09/05 02:13:55;;;;;;;36.13;15.13;;;16.70;99.90;;;;;;4997967;28;20045;-77
2022/09/05 02:16:30;;;;;;;22.23;11.35;;;16.70;99.90;;;;;;5015183;28;20057;-77
2022/09/05 02:19:11;;;;;;;25.85;11.00;;;16.70;99.90;;;;;;4998088;28;20388;-78
2022/09/05 02:21:50;;;;;;;27.67;11.23;;;16.70;99.90;;;;;;4997149;28;20046;-78
2022/09/05 02:24:37;;;;;;;30.45;11.27;;;16.60;99.90;;;;;;4982215;28;20046;-77
2022/09/05 02:27:36;;;;;;;29.58;13.68;;;15.60;99.90;;;;;;4997333;28;20042;-77
2022/09/05 02:30:28;;;;;;;33.55;15.05;;;16.50;99.90;;;;;;5015195;28;20376;-77
2022/09/05 02:33:36;;;;;;;24.40;13.32;;;16.50;99.90;;;;;;5015492;28;20376;-77
2022/09/05 02:36:48;;;;;;;31.20;14.38;;;16.60;99.90;;;;;;4985934;28;20480;-78
2022/09/05 02:39:25;;;;;;;34.80;13.60;;;16.50;99.90;;;;;;4981355;28;20464;-78
2022/09/05 02:42:27;;;;;;;30.25;15.38;;;16.50;99.90;;;;;;5033012;28;20042;-77
2022/09/05 02:45:36;;;;;;;40.28;17.02;;;16.50;99.90;;;;;;5035118;28;20448;-77
2022/09/05 02:48:26;;;;;;;35.70;16.58;;;16.50;99.90;;;;;;5032715;28;20041;-78
2022/09/05 02:51:20;;;;;;;26.92;13.80;;;16.50;99.90;;;;;;5034947;28;20046;-77
2022/09/05 02:54:12;;;;;;;29.63;15.93;;;16.50;99.90;;;;;;5032945;28;20042;-77
2022/09/05 02:57:09;;;;;;;46.20;20.27;;;16.50;99.90;;;;;;5034990;28;20045;-77
2022/09/05 03:00:01;;;;;;;27.25;12.95;;;16.40;99.90;;;;;;5016354;28;20080;-77
2022/09/05 03:02:48;;;;;;;28.10;14.48;;;16.40;99.90;;;;;;5033912;28;20060;-77
2022/09/05 03:05:40;;;;;;;33.65;15.27;;;16.40;99.90;;;;;;5017855;28;20060;-75
2022/09/05 03:08:15;;;;;;;24.90;12.90;;;16.40;99.90;;;;;;5033872;28;20050;-76
2022/09/05 03:11:14;;;;;;;32.78;17.48;;;16.40;99.90;;;;;;5017344;28;20068;-78
2022/09/05 03:14:14;;;;;;;32.95;16.48;;;16.50;99.90;;;;;;5037475;28;20076;-78
2022/09/05 03:17:24;;;;;;;35.63;17.55;;;16.50;99.90;;;;;;5038584;28;20045;-78
2022/09/05 03:20:19;;;;;;;31.23;16.23;;;16.60;99.90;;;;;;4976504;28;20041;-78
2022/09/05 03:23:15;;;;;;;25.67;13.95;;;16.60;99.90;;;;;;5037365;28;20041;-77
2022/09/05 03:26:03;;;;;;;35.97;16.48;;;16.70;99.90;;;;;;5020952;28;20061;-78
2022/09/05 03:29:08;;;;;;;30.15;17.52;;;16.70;99.90;;;;;;5037325;28;20053;-78
2022/09/05 03:31:50;;;;;;;25.38;15.07;;;16.70;99.90;;;;;;5038173;28;20042;-77
2022/09/05 03:34:24;;;;;;;30.60;14.70;;;16.70;99.90;;;;;;5036454;28;20049;-78
2022/09/05 03:37:39;;;;;;;25.73;14.18;;;16.70;99.90;;;;;;5037536;28;20041;-78
2022/09/05 03:40:45;;;;;;;30.88;14.07;;;16.60;99.90;;;;;;5029638;28;20053;-77
2022/09/05 03:43:29;;;;;;;30.08;13.65;;;16.60;99.90;;;;;;4999048;28;20049;-76
2022/09/05 03:46:00;;;;;;;34.75;15.15;;;16.50;99.90;;;;;;5037900;28;20041;-77
2022/09/05 03:48:38;;;;;;;34.60;14.43;;;16.50;99.90;;;;;;5035896;28;20349;-78
2022/09/05 03:51:22;;;;;;;;;;;16.50;99.90;;;;;;5038202;28;20038;-78
2022/09/05 03:54:45;;;;;;;26.73;11.98;;;16.40;99.90;;;;;;5036702;28;20343;-78
2022/09/05 03:57:51;;;;;;;35.83;15.38;;;16.40;99.90;;;;;;5037407;28;20456;-78
2022/09/05 04:00:26;;;;;;;32.70;14.73;;;16.30;99.90;;;;;;5036032;28;20045;-77
2022/09/05 04:02:57;;;;;;;40.60;15.77;;;16.30;99.90;;;;;;5036807;28;20392;-77
2022/09/05 04:05:51;;;;;;;32.95;14.90;;;16.30;99.90;;;;;;5037394;28;20041;-78
2022/09/05 04:08:48;;;;;;;36.58;17.15;;;16.20;99.90;;;;;;5036710;28;20372;-76
2022/09/05 04:11:46;;;;;;;44.25;19.33;;;16.10;99.90;;;;;;5037365;28;20499;-78
2022/09/05 04:14:23;;;;;;;41.33;18.13;;;16.10;99.90;;;;;;5019567;28;20368;-78
2022/09/05 04:16:57;;;;;;;38.53;18.85;;;16.00;99.90;;;;;;5037594;28;20275;-77
2022/09/05 04:19:31;;;;;;;35.75;19.20;;;15.90;99.90;;;;;;5037358;28;20049;-77
2022/09/05 04:22:31;;;;;;;55.35;23.15;;;15.90;99.90;;;;;;5051913;28;20036;-78
2022/09/05 04:25:14;;;;;;;37.00;19.30;;;15.90;99.90;;;;;;5036360;28;20045;-77
2022/09/05 04:28:26;;;;;;;42.42;22.58;;;15.80;99.90;;;;;;5036266;28;20052;-78
2022/09/05 04:31:39;;;;;;;42.75;21.42;;;15.80;99.90;;;;;;5022201;28;20053;-78
2022/09/05 04:34:21;;;;;;;43.70;21.42;;;15.80;99.90;;;;;;4967099;28;20058;-77
2022/09/05 04:37:00;;;;;;;35.00;18.70;;;15.80;99.90;;;;;;5037178;28;20444;-77
2022/09/05 04:39:29;;;;;;;41.58;18.85;;;15.80;99.90;;;;;;5019692;28;20060;-78
2022/09/05 04:42:23;;;;;;;44.85;19.77;;;15.80;99.90;;;;;;5034912;28;20057;-78
2022/09/05 04:45:08;;;;;;;37.08;20.17;;;15.80;99.90;;;;;;5035890;28;20046;-76
2022/09/05 04:47:41;;;;;;;46.08;20.58;;;15.80;99.90;;;;;;5035310;28;20052;-77
2022/09/05 04:50:19;;;;;;;40.65;17.05;;;15.70;99.90;;;;;;5036223;28;20156;-77
2022/09/05 04:52:59;;;;;;;45.58;19.23;;;15.70;99.90;;;;;;5036744;28;20049;-78
2022/09/05 04:55:37;;;;;;;32.53;13.57;;;15.70;99.90;;;;;;5018323;28;20049;-77
2022/09/05 04:58:21;;;;;;;31.13;13.13;;;15.70;99.90;;;;;;5036138;28;20065;-78
2022/09/05 05:01:03;;;;;;;28.23;11.13;;;15.70;99.90;;;;;;5035612;28;20495;-77
2022/09/05 05:03:51;;;;;;;31.38;12.40;;;15.60;99.90;;;;;;5035325;28;20061;-78
2022/09/05 05:06:44;;;;;;;;;;;15.70;99.90;;;;;;5035899;28;20038;-77
2022/09/05 05:09:14;;;;;;;36.25;13.55;;;15.70;99.90;;;;;;5035938;28;19921;-77
2022/09/05 05:11:44;;;;;;;;;;;15.70;99.90;;;;;;5037015;28;20064;-77
2022/09/05 05:14:41;;;;;;;24.13;11.93;;;16.80;99.90;;;;;;5035584;28;19921;-78
2022/09/05 05:17:52;;;;;;;38.72;14.27;;;15.70;99.90;;;;;;5035786;28;20069;-77
2022/09/05 05:20:54;;;;;;;38.03;13.30;;;15.80;99.90;;;;;;5035189;28;20056;-76
2022/09/05 05:23:39;;;;;;;32.33;13.05;;;15.80;99.90;;;;;;5035675;28;20049;-77
2022/09/05 05:26:32;;;;;;;25.38;11.43;;;15.80;99.90;;;;;;5036396;28;20034;-77
2022/09/05 05:29:15;;;;;;;33.28;12.68;;;15.90;99.90;;;;;;5052352;28;20037;-77
2022/09/05 05:31:51;;;;;;;34.42;12.77;;;15.90;99.90;;;;;;5036103;28;20041;-78
2022/09/05 05:34:35;;;;;;;30.98;12.57;;;15.90;99.90;;;;;;5035028;28;20049;-77
2022/09/05 05:37:24;;;;;;;39.75;14.80;;;15.90;99.90;;;;;;5002815;28;20419;-77
2022/09/05 05:40:18;;;;;;;34.72;11.80;;;15.90;99.90;;;;;;5019060;28;20054;-77
2022/09/05 05:42:45;;;;;;;27.73;13.20;;;15.80;99.90;;;;;;5035196;28;20045;-77
2022/09/05 05:45:26;;;;;;;34.97;12.75;;;15.80;99.90;;;;;;5035710;28;20468;-76
2022/09/05 05:48:01;;;;;;;29.50;13.27;;;15.80;99.90;;;;;;5034155;28;20060;-78
2022/09/05 05:51:12;;;;;;;34.25;12.93;;;15.80;99.90;;;;;;5035750;28;20049;-77
2022/09/05 05:53:59;;;;;;;40.35;14.77;;;15.80;99.90;;;;;;5033828;28;20041;-78
2022/09/05 05:56:49;;;;;;;36.67;13.73;;;15.90;99.90;;;;;;5035644;28;20468;-78
2022/09/05 05:59:44;;;;;;;31.48;14.05;;;15.80;99.90;;;;;;5035782;28;20045;-77
2022/09/05 06:03:01;;;;;;;35.95;14.18;;;15.90;99.90;;;;;;5034962;28;20045;-78
2022/09/05 06:06:32;;;;;;;34.45;13.98;;;15.90;99.90;;;;;;5034215;28;20041;-78
2022/09/05 06:09:33;;;;;;;29.00;11.73;;;15.90;99.90;;;;;;5017912;28;20361;-75
2022/09/05 06:12:39;;;;;;;33.55;11.55;;;15.90;99.90;;;;;;5034261;28;20041;-75
2022/09/05 06:15:55;;;;;;;35.28;11.05;;;15.90;99.90;;;;;;5052517;28;20041;-75
2022/09/05 06:18:59;;;;;;;35.50;10.88;;;15.90;99.90;;;;;;5055085;28;20040;-75
2022/09/05 06:21:57;;;;;;;26.83;12.02;;;15.90;99.90;;;;;;5037920;28;20064;-75
2022/09/05 06:24:56;;;;;;;33.50;11.07;;;15.90;99.90;;;;;;5054269;28;20041;-75
2022/09/05 06:27:51;;;;;;;29.00;11.80;;;15.90;99.90;;;;;;5052998;28;20053;-75
2022/09/05 06:31:20;;;;;;;27.15;11.18;;;15.90;99.90;;;;;;5054867;28;20444;-76
2022/09/05 06:34:33;;;;;;;25.63;11.43;;;15.40;99.90;;;;;;5054120;28;20041;-76
2022/09/05 06:37:20;;;;;;;30.98;11.73;;;15.90;99.90;;;;;;5013936;28;20056;-75
2022/09/05 06:39:50;;;;;;;31.98;11.73;;;15.90;99.90;;;;;;5054233;28;20490;-76
2022/09/05 06:42:34;;;;;;;37.00;12.10;;;16.00;99.90;;;;;;5052987;28;20047;-75
2022/09/05 06:45:48;;;;;;;27.38;12.07;;;16.00;99.90;;;;;;5054950;28;20356;-75
2022/09/05 06:48:46;;;;;;;30.75;13.38;;;16.00;99.90;;;;;;5028137;28;20068;-75
2022/09/05 06:51:47;;;;;;;33.50;13.82;;;16.10;99.90;;;;;;5040325;28;20041;-76
2022/09/05 06:54:33;;;;;;;31.05;13.30;;;16.10;99.90;;;;;;5053702;28;20056;-76
2022/09/05 06:57:30;;;;;;;39.38;13.07;;;16.20;99.90;;;;;;5053981;28;20049;-75
2022/09/05 07:00:06;;;;;;;35.53;11.98;;;16.20;99.90;;;;;;5053162;28;20056;-74
2022/09/05 07:03:06;;;;;;;;;;;16.30;99.90;;;;;;5055428;28;20495;-77
2022/09/05 07:05:46;;;;;;;43.22;19.50;;;16.30;99.90;;;;;;5037184;28;19932;-75
2022/09/05 07:08:25;;;;;;;50.35;19.45;;;16.40;99.90;;;;;;5036076;28;20041;-75
2022/09/05 07:11:31;;;;;;;38.15;13.20;;;16.40;99.90;;;;;;5054271;28;20045;-75
2022/09/05 07:14:16;;;;;;;36.47;13.75;;;16.40;99.90;;;;;;5049219;28;20471;-77
2022/09/05 07:16:49;;;;;;;39.05;13.45;;;16.50;99.90;;;;;;5054514;28;20056;-76
2022/09/05 07:19:26;;;;;;;44.45;15.18;;;16.50;99.90;;;;;;5054172;28;20041;-76
2022/09/05 07:22:06;;;;;;;44.92;17.45;;;16.50;99.90;;;;;;5052501;28;20049;-77
2022/09/05 07:24:55;;;;;;;38.13;13.98;;;16.50;99.90;;;;;;5054646;28;20050;-77
2022/09/05 07:27:38;;;;;;;53.28;23.20;;;16.60;99.90;;;;;;5052754;28;20049;-77
2022/09/05 07:30:26;;;;;;;45.22;13.85;;;16.60;99.90;;;;;;5054266;28;20506;-77
2022/09/05 07:32:57;;;;;;;41.30;13.40;;;16.70;99.90;;;;;;5054522;28;20377;-77
2022/09/05 07:35:31;;;;;;;45.38;16.50;;;16.70;99.90;;;;;;5052604;28;20048;-77
2022/09/05 07:38:20;;;;;;;44.10;16.05;;;16.80;99.90;;;;;;5053397;28;20053;-76
2022/09/05 07:40:54;;;;;;;38.17;14.40;;;16.80;99.90;;;;;;5035782;28;20383;-74
2022/09/05 07:43:26;;;;;;;34.97;10.82;;;16.90;99.90;;;;;;5034159;28;20384;-74
2022/09/05 07:46:16;;;;;;;30.35;10.00;;;16.90;99.90;;;;;;5034278;28;20037;-74
2022/09/05 07:48:52;;;;;;;27.75;10.38;;;16.90;99.90;;;;;;5033079;28;20061;-74
2022/09/05 07:51:33;;;;;;;35.13;10.55;;;17.00;99.90;;;;;;5017042;28;20038;-74
2022/09/05 07:54:27;;;;;;;26.52;9.38;;;17.10;99.90;;;;;;5032941;28;20033;-75
2022/09/05 07:57:30;;;;;;;29.60;9.65;;;17.20;99.90;;;;;;5034299;28;20052;-74
2022/09/05 08:00:23;;;;;;;26.90;8.98;;;17.30;99.90;;;;;;5022315;28;20045;-74
2022/09/05 08:03:07;;;;;;;24.38;7.78;;;17.30;99.90;;;;;;5004518;28;20379;-74
2022/09/05 08:05:41;;;;;;;25.00;8.07;;;17.40;99.90;;;;;;5037447;28;20044;-74
2022/09/05 08:08:16;;;;;;;22.13;6.88;;;17.40;99.90;;;;;;5036607;28;20049;-73
2022/09/05 08:10:50;;;;;;;32.45;8.95;;;17.50;99.90;;;;;;5020339;28;20376;-74
2022/09/05 08:13:41;;;;;;;24.50;7.40;;;17.50;99.90;;;;;;5036742;28;20033;-74
2022/09/05 08:16:20;;;;;;;26.73;7.25;;;17.60;99.90;;;;;;5037719;28;20049;-73
2022/09/05 08:19:45;;;;;;;22.85;7.25;;;17.70;99.90;;;;;;5037281;28;20049;-74
2022/09/05 08:22:20;;;;;;;21.73;6.63;;;17.80;99.90;;;;;;5018708;28;20056;-72
2022/09/05 08:25:01;;;;;;;28.10;6.57;;;17.90;99.90;;;;;;5020148;28;20120;-75
2022/09/05 08:27:55;;;;;;;20.05;6.28;;;18.00;99.90;;;;;;5036375;28;20041;-74
2022/09/05 08:30:23;;;;;;;24.60;5.60;;;18.10;99.90;;;;;;5037474;28;20045;-75
2022/09/05 08:33:01;;;;;;;24.10;5.97;;;18.20;99.90;;;;;;5037440;28;20041;-75
2022/09/05 08:35:53;;;;;;;20.35;5.80;;;16.80;99.90;;;;;;5016170;28;20045;-75
2022/09/05 08:38:31;;;;;;;22.08;5.93;;;18.30;99.90;;;;;;4984887;28;20052;-74
2022/09/05 08:41:38;;;;;;;19.20;5.78;;;18.40;99.90;;;;;;5034329;28;20065;-74
2022/09/05 08:44:47;;;;;;;22.27;6.18;;;18.50;99.90;;;;;;5038653;28;20061;-75
2022/09/05 08:47:44;;;;;;;17.75;6.10;;;18.70;99.90;;;;;;5055174;28;20052;-75
2022/09/05 08:50:31;;;;;;;23.65;7.20;;;18.80;99.90;;;;;;5056359;28;20056;-76
2022/09/05 08:53:11;;;;;;;19.35;5.95;;;18.90;99.90;;;;;;5056236;28;20056;-76
2022/09/05 08:56:34;;;;;;;18.60;5.15;;;19.00;99.90;;;;;;5056185;28;20052;-76
2022/09/05 08:59:20;;;;;;;20.80;6.18;;;19.10;99.90;;;;;;5025478;28;20056;-76
2022/09/05 09:02:02;;;;;;;20.23;5.88;;;19.20;99.90;;;;;;5040167;28;20041;-75
2022/09/05 09:05:06;;;;;;;15.85;5.15;;;19.30;99.90;;;;;;5056697;28;20048;-75
2022/09/05 09:08:09;;;;;;;18.77;4.20;;;19.50;99.90;;;;;;5054216;28;20055;-77
2022/09/05 09:11:06;;;;;;;19.25;4.40;;;18.80;99.90;;;;;;5050374;28;20053;-74
2022/09/05 09:13:55;;;;;;;18.95;4.18;;;19.70;99.90;;;;;;5055097;28;20044;-74
2022/09/05 09:16:53;;;;;;;17.15;4.70;;;19.80;99.90;;;;;;5039245;28;20052;-74
2022/09/05 09:19:27;;;;;;;;;;;20.00;99.90;;;;;;5057253;28;20479;-75
2022/09/05 09:22:24;;;;;;;15.02;3.92;;;20.00;99.90;;;;;;5055198;28;20015;-74
2022/09/05 09:25:01;;;;;;;13.85;3.85;;;20.20;99.90;;;;;;5055542;28;20044;-74
2022/09/05 09:28:18;;;;;;;14.32;3.72;;;20.40;99.90;;;;;;5055043;28;20045;-74
2022/09/05 09:31:10;;;;;;;13.77;3.80;;;20.50;99.90;;;;;;5055048;28;20502;-73
2022/09/05 09:33:49;;;;;;;10.68;3.38;;;20.50;99.90;;;;;;5055004;28;20068;-75
2022/09/05 09:36:52;;;;;;;14.48;3.65;;;20.50;99.90;;;;;;5056422;28;20055;-73
2022/09/05 09:39:43;;;;;;;19.10;3.30;;;20.60;99.90;;;;;;5050941;28;20050;-75
2022/09/05 09:42:21;;;;;;;16.90;3.42;;;20.60;99.90;;;;;;4994368;28;20054;-74
2022/09/05 09:45:15;;;;;;;16.58;3.55;;;20.60;99.90;;;;;;5016546;28;20050;-74
2022/09/05 09:48:32;;;;;;;15.70;3.40;;;20.70;99.90;;;;;;5015263;28;20049;-73
2022/09/05 09:51:38;;;;;;;15.38;3.30;;;20.70;99.90;;;;;;4998319;28;20053;-74
2022/09/05 09:54:25;;;;;;;13.35;3.33;;;20.80;99.90;;;;;;5003001;28;20376;-74
2022/09/05 09:57:04;;;;;;;10.63;3.60;;;20.80;99.90;;;;;;5025415;28;20484;-74
2022/09/05 09:59:31;;;;;;;15.10;3.53;;;20.80;99.90;;;;;;5008146;28;20045;-74
2022/09/05 10:02:21;;;;;;;17.92;4.13;;;20.90;99.90;;;;;;5025441;28;20045;-73
2022/09/05 10:05:30;;;;;;;16.58;3.72;;;21.00;99.90;;;;;;5026098;28;20361;-74
2022/09/05 10:08:21;;;;;;;19.70;3.60;;;21.10;99.90;;;;;;5007866;28;20052;-74
2022/09/05 10:11:44;;;;;;;12.20;3.40;;;21.10;99.90;;;;;;5024580;28;20038;-74
2022/09/05 10:14:44;;;;;;;17.23;3.63;;;21.20;99.90;;;;;;4999206;28;20068;-74
2022/09/05 10:17:41;;;;;;;13.20;3.70;;;21.20;99.90;;;;;;5035086;28;20501;-74
2022/09/05 10:20:24;;;;;;;11.32;3.55;;;21.20;99.90;;;;;;5033793;28;20048;-74
2022/09/05 10:23:33;;;;;;;12.68;4.03;;;21.20;99.90;;;;;;5035020;28;20064;-75
2022/09/05 10:26:26;;;;;;;13.63;3.83;;;21.20;99.90;;;;;;5035270;28;20049;-72
2022/09/05 10:29:12;;;;;;;14.50;3.47;;;21.20;99.90;;;;;;5016548;28;20491;-73
2022/09/05 10:32:28;;;;;;;13.40;3.63;;;21.20;99.90;;;;;;5017897;28;20046;-73
2022/09/05 10:35:24;;;;;;;13.68;3.90;;;21.20;99.90;;;;;;5000840;28;20057;-73
2022/09/05 10:38:10;;;;;;;12.43;3.58;;;21.20;99.90;;;;;;5015095;28;20048;-75
2022/09/05 10:40:44;;;;;;;15.80;3.85;;;21.20;99.90;;;;;;5013739;28;20484;-72
2022/09/05 10:43:47;;;;;;;16.23;4.00;;;21.20;99.90;;;;;;5014939;28;20049;-73
2022/09/05 10:46:41;;;;;;;15.20;4.07;;;21.20;99.90;;;;;;5013748;28;20065;-74
2022/09/05 10:49:27;;;;;;;15.68;4.03;;;21.20;99.90;;;;;;5014714;28;20045;-74
2022/09/05 10:52:09;;;;;;;15.55;4.15;;;21.30;99.90;;;;;;5014719;28;20050;-73
2022/09/05 10:54:57;;;;;;;10.57;3.70;;;21.30;99.90;;;;;;5013562;28;20396;-70
2022/09/05 10:57:46;;;;;;;13.45;3.80;;;21.30;99.90;;;;;;5014583;28;20050;-76
2022/09/05 11:00:42;;;;;;;12.95;4.00;;;21.40;99.90;;;;;;5013783;28;20304;-77
2022/09/05 11:04:17;;;;;;;12.40;3.78;;;21.50;99.90;;;;;;5014600;28;20056;-78
2022/09/05 11:06:52;;;;;;;16.58;4.25;;;21.60;99.90;;;;;;4953504;29;20054;-72
2022/09/05 11:09:45;;;;;;;18.80;4.13;;;21.70;99.90;;;;;;5006078;28;20057;-73
2022/09/05 11:12:48;;;;;;;12.68;4.28;;;21.90;99.90;;;;;;5014479;28;20045;-73
2022/09/05 11:15:56;;;;;;;12.85;3.88;;;22.00;99.90;;;;;;5013419;28;20046;-73
2022/09/05 11:19:13;;;;;;;14.10;4.43;;;22.20;99.90;;;;;;5014353;28;20045;-74
2022/09/05 11:22:01;;;;;;;15.93;3.97;;;22.40;99.90;;;;;;4996183;28;20050;-72
2022/09/05 11:24:56;;;;;;;;;;;22.60;99.90;;;;;;5014568;28;20042;-72
2022/09/05 11:27:35;;;;;;;12.50;4.20;;;22.70;99.90;;;;;;4996152;28;19928;-73
2022/09/05 11:30:16;;;;;;;11.00;4.50;;;22.80;99.90;;;;;;5014382;28;20046;-73
2022/09/05 11:33:21;;;;;;;14.85;4.00;;;22.90;99.90;;;;;;5001506;28;20057;-74
2022/09/05 11:36:23;;;;;;;10.80;3.80;;;22.90;99.90;;;;;;5018166;28;20053;-74
2022/09/05 11:39:32;;;;;;;12.20;3.47;;;23.00;99.90;;;;;;5017626;28;20060;-74
2022/09/05 11:43:00;;;;;;;13.52;3.80;;;23.10;99.90;;;;;;5018092;28;20045;-73
2022/09/05 11:45:53;;;;;;;10.95;3.90;;;23.20;99.90;;;;;;5017855;28;20082;-73
2022/09/05 11:48:33;;;;;;;11.15;3.67;;;23.30;99.90;;;;;;5021989;28;20045;-73
2022/09/05 11:51:06;;;;;;;16.52;3.90;;;23.40;99.90;;;;;;5033647;28;20045;-73
2022/09/05 11:53:58;;;;;;;12.82;3.45;;;23.40;99.90;;;;;;5018762;28;20045;-73
2022/09/05 11:56:44;;;;;;;19.05;3.70;;;23.30;99.90;;;;;;5027027;28;20042;-73
2022/09/05 11:59:12;;;;;;;10.55;3.53;;;23.20;99.90;;;;;;5028170;28;20041;-74
2022/09/05 12:01:56;;;;;;;11.05;3.20;;;23.20;99.90;;;;;;5008277;28;20057;-73
2022/09/05 12:04:51;;;;;;;11.32;3.58;;;23.20;99.90;;;;;;5020224;28;20061;-73
2022/09/05 12:07:56;;;;;;;9.95;3.13;;;23.20;99.90;;;;;;5015887;28;20065;-73
2022/09/05 12:10:38;;;;;;;15.60;3.15;;;23.20;99.90;;;;;;5018770;28;20068;-73
2022/09/05 12:13:36;;;;;;;15.05;3.13;;;23.20;99.90;;;;;;5028169;28;20048;-78
2022/09/05 12:16:36;;;;;;;8.25;3.05;;;23.10;99.90;;;;;;5019472;28;20396;-76
2022/09/05 12:19:17;;;;;;;10.40;3.17;;;22.90;99.90;;;;;;4952504;28;20071;-77
2022/09/05 12:22:14;;;;;;;10.52;2.97;;;22.90;99.90;;;;;;5019148;28;20052;-74
2022/09/05 12:25:15;;;;;;;9.90;2.92;;;22.70;99.90;;;;;;5037305;28;20052;-77
2022/09/05 12:28:14;;;;;;;11.45;3.28;;;22.60;99.90;;;;;;5018720;28;20060;-76
2022/09/05 12:31:14;;;;;;;14.32;3.83;;;22.50;99.90;;;;;;5017585;28;20034;-74
2022/09/05 12:34:08;;;;;;;12.60;3.22;;;22.40;99.90;;;;;;4998619;28;20045;-75
2022/09/05 12:37:01;;;;;;;10.43;3.55;;;22.40;99.90;;;;;;5017214;28;20491;-76
2022/09/05 12:40:23;;;;;;;15.88;3.47;;;22.30;99.90;;;;;;5016006;28;20048;-76
2022/09/05 12:43:12;;;;;;;12.98;3.60;;;22.30;99.90;;;;;;5036461;28;20044;-77
2022/09/05 12:46:45;;;;;;;13.40;3.50;;;22.40;99.90;;;;;;5036628;28;20049;-75
2022/09/05 12:49:28;;;;;;;10.38;3.60;;;22.60;99.90;;;;;;5037298;28;20042;-74
2022/09/05 12:52:17;;;;;;;12.85;3.58;;;22.80;99.90;;;;;;5036685;28;20042;-75
2022/09/05 12:54:53;;;;;;;10.77;3.33;;;23.00;99.90;;;;;;5019049;28;20045;-75
2022/09/05 12:57:33;;;;;;;9.52;3.42;;;23.30;99.90;;;;;;5053947;28;20053;-74
2022/09/05 13:00:23;;;;;;;7.90;3.42;;;23.40;99.90;;;;;;5049476;28;20045;-75
2022/09/05 13:03:23;;;;;;;13.18;3.80;;;23.50;99.90;;;;;;5019769;28;20053;-74
2022/09/05 13:06:13;;;;;;;13.50;3.72;;;23.60;99.90;;;;;;5045023;28;20390;-74
2022/09/05 13:09:00;;;;;;;11.00;3.67;;;23.80;99.90;;;;;;5054267;28;20048;-76
2022/09/05 13:11:34;;;;;;;11.48;3.60;;;23.90;99.90;;;;;;5056284;28;20044;-76
2022/09/05 13:14:42;;;;;;;14.63;3.20;;;24.00;99.90;;;;;;5042700;28;20038;-75
2022/09/05 13:17:49;;;;;;;13.57;3.58;;;24.20;99.90;;;;;;5040276;28;20379;-75
2022/09/05 13:20:31;;;;;;;11.77;3.17;;;24.20;99.90;;;;;;5055565;28;20045;-76
2022/09/05 13:23:11;;;;;;;11.02;2.90;;;24.20;99.90;;;;;;5056320;28;20483;-77
2022/09/05 13:25:42;;;;;;;13.25;2.88;;;24.20;99.90;;;;;;5056127;28;20375;-74
2022/09/05 13:28:13;;;;;;;9.30;2.90;;;24.10;99.90;;;;;;5055033;28;20064;-77
2022/09/05 13:30:56;;;;;;;13.48;2.78;;;24.10;99.90;;;;;;5055341;28;20045;-72
2022/09/05 13:33:49;;;;;;;9.55;2.60;;;24.20;99.90;;;;;;5053737;28;20379;-76
2022/09/05 13:37:23;;;;;;;8.50;2.20;;;24.10;99.90;;;;;;5035503;28;20487;-74
2022/09/05 13:40:19;;;;;;;13.57;2.60;;;24.10;99.90;;;;;;5021165;28;20286;-77
2022/09/05 13:43:25;;;;;;;11.27;2.58;;;24.20;99.90;;;;;;4998916;28;20061;-77
2022/09/05 13:46:15;;;;;;;11.90;2.88;;;24.30;99.90;;;;;;5016163;28;20042;-79
2022/09/05 13:49:00;;;;;;;11.63;2.50;;;24.40;99.90;;;;;;4997785;28;20392;-76
2022/09/05 13:51:54;;;;;;;9.45;2.08;;;24.50;99.90;;;;;;5007727;28;20038;-76
2022/09/05 13:54:35;;;;;;;6.60;2.20;;;24.60;99.90;;;;;;5027637;28;20042;-76
2022/09/05 13:57:40;;;;;;;10.15;2.13;;;24.60;99.40;;;;;;5018165;28;20037;-75
2022/09/05 14:00:11;;;;;;;8.18;2.10;;;24.60;98.60;;;;;;5017502;28;20049;-75
2022/09/05 14:03:22;;;;;;;7.60;2.50;;;24.50;99.40;;;;;;5035364;28;20041;-76
2022/09/05 14:06:09;;;;;;;8.63;2.33;;;24.50;98.60;;;;;;5035212;28;20045;-76
2022/09/05 14:09:03;;;;;;;6.38;2.28;;;24.50;98.90;;;;;;5034595;28;20380;-75
2022/09/05 14:12:03;;;;;;;11.93;2.40;;;24.50;98.80;;;;;;5002144;28;20045;-76
2022/09/05 14:14:38;;;;;;;7.80;2.03;;;24.50;99.20;;;;;;5017360;28;20044;-76
2022/09/05 14:17:57;;;;;;;10.90;2.42;;;24.40;98.40;;;;;;5035118;28;20052;-74
2022/09/05 14:21:14;;;;;;;12.90;2.20;;;24.50;98.00;;;;;;5009841;28;20057;-73
2022/09/05 14:23:56;;;;;;;5.65;2.10;;;24.60;98.50;;;;;;5015970;28;20052;-75
2022/09/05 14:26:33;;;;;;;9.45;2.42;;;24.70;98.40;;;;;;5035585;28;20046;-74
2022/09/05 14:29:31;;;;;;;7.73;2.43;;;24.70;98.30;;;;;;5018044;28;20046;-76
2022/09/05 14:32:34;;;;;;;8.57;2.20;;;24.80;98.10;;;;;;5017522;28;20368;-74
2022/09/05 14:35:31;;;;;;;7.78;2.10;;;24.80;97.80;;;;;;5016498;28;20056;-75
2022/09/05 14:38:57;;;;;;;5.38;2.13;;;24.70;97.40;;;;;;5035036;28;20041;-77